Matucana, Peru
Current Conditions -  °F | °C
As of 10:00 AM on Sunday 21 Dec 2014 (Local Time) from SPIM Reporting Station
Overcast Overcast  
Wind Chill: 70°   Ceiling: 3000
Heat Index: 70°   Visibility: 6mi
Dew Point: 63°   Wind: 7mph
Humidity: 78%   Direction: 180°S
Pressure: 29.97"   Gusts: NA
Location:  11.85°S, 76.4°W
Report Text: SPIM 211500Z 18006KT 9999 OVC030 21/17 Q1015 NOSIG RMK PP000
Loading
Personal Weather Stations






























Interactive Weather Map New forecast layout! Learn more

10-Day Weather Forecast

Advertisements
Track Severe Weather on mobile